Time;durP1;ratioP1;P1;durP2;ratioP2;P2;SDS_P1;SDS_P2;PMS_P1;PMS_P2;Temp;Humidity;BMP_temperature;BMP_pressure;BME280_temperature;BME280_humidity;BME280_pressure;Samples;Min_cycle;Max_cycle;Signal;HPM_P1;HPM_P2
2021/10/03 00:01:32;;;;;;;10.88;2.00;;;;;;;;;;5055224;28;20071;-79
2021/10/03 00:03:58;;;;;;;11.18;1.90;;;;;;;;;;5055044;28;20390;-79
2021/10/03 00:06:24;;;;;;;8.85;2.10;;;;;;;;;;5055016;28;20024;-79
2021/10/03 00:08:50;;;;;;;24.40;2.53;;;;;;;;;;5054720;28;20067;-79
2021/10/03 00:11:16;;;;;;;90.45;3.90;;;;;;;;;;5054992;28;20074;-79
2021/10/03 00:13:41;;;;;;;52.20;2.88;;;;;;;;;;5055048;28;20454;-79
2021/10/03 00:16:06;;;;;;;6.68;1.85;;;;;;;;;;5054550;28;20064;-79
2021/10/03 00:18:32;;;;;;;9.70;2.00;;;;;;;;;;5054999;28;20013;-79
2021/10/03 00:20:58;;;;;;;67.00;3.40;;;;;;;;;;5054815;28;20024;-79
2021/10/03 00:23:23;;;;;;;13.65;2.55;;;;;;;;;;5054836;28;20081;-79
2021/10/03 00:25:49;;;;;;;30.73;2.63;;;;;;;;;;5054694;28;20470;-79
2021/10/03 00:28:14;;;;;;;143.70;5.55;;;;;;;;;;5054556;28;20100;-79
2021/10/03 00:30:40;;;;;;;113.07;4.63;;;;;;;;;;5054659;28;20029;-79
2021/10/03 00:33:06;;;;;;;61.58;3.58;;;;;;;;;;5053413;28;20462;-79
2021/10/03 00:35:32;;;;;;;28.63;2.83;;;;;;;;;;5054335;28;20128;-79
2021/10/03 00:37:59;;;;;;;27.77;2.78;;;;;;;;;;5054417;28;20203;-79
2021/10/03 00:40:25;;;;;;;13.82;3.22;;;;;;;;;;5054495;28;20024;-79
2021/10/03 00:42:50;;;;;;;31.02;3.92;;;;;;;;;;5054417;28;20025;-79
2021/10/03 00:45:16;;;;;;;175.70;7.25;;;;;;;;;;5054421;28;20037;-79
2021/10/03 00:47:42;;;;;;;103.80;5.05;;;;;;;;;;5052973;28;20055;-79
2021/10/03 00:50:08;;;;;;;71.75;3.58;;;;;;;;;;5054359;28;20021;-79
2021/10/03 00:52:33;;;;;;;23.08;3.25;;;;;;;;;;5054178;28;20090;-79
2021/10/03 00:54:59;;;;;;;15.38;3.50;;;;;;;;;;5054116;28;20013;-79
2021/10/03 00:57:24;;;;;;;14.52;2.72;;;;;;;;;;5054151;28;20040;-79
2021/10/03 00:59:49;;;;;;;13.38;2.42;;;;;;;;;;5054130;28;20029;-79
2021/10/03 01:02:15;;;;;;;8.98;2.30;;;;;;;;;;5054084;28;20028;-79
2021/10/03 01:04:40;;;;;;;8.27;2.42;;;;;;;;;;5054076;28;20032;-79
2021/10/03 01:07:05;;;;;;;8.90;2.35;;;;;;;;;;5053910;28;20495;-79
2021/10/03 01:09:31;;;;;;;11.77;2.15;;;;;;;;;;5054116;28;20025;-79
2021/10/03 01:11:57;;;;;;;7.40;1.88;;;;;;;;;;5053577;28;20032;-79
2021/10/03 01:14:23;;;;;;;47.58;3.70;;;;;;;;;;5052826;28;20494;-79
2021/10/03 01:16:49;;;;;;;94.88;4.72;;;;;;;;;;5053671;28;20025;-80
2021/10/03 01:19:15;;;;;;;58.92;3.47;;;;;;;;;;5053850;28;20154;-79
2021/10/03 01:21:44;;;;;;;36.08;2.88;;;;;;;;;;5053321;28;20533;-80
2021/10/03 01:24:09;;;;;;;43.65;2.90;;;;;;;;;;5053610;28;20013;-79
2021/10/03 01:26:35;;;;;;;32.92;3.22;;;;;;;;;;5053817;28;20044;-79
2021/10/03 01:29:00;;;;;;;76.47;4.45;;;;;;;;;;5053526;28;20102;-79
2021/10/03 01:31:26;;;;;;;52.05;3.95;;;;;;;;;;5053697;28;20031;-79
2021/10/03 01:33:52;;;;;;;48.85;3.55;;;;;;;;;;5053411;28;20369;-79
2021/10/03 01:36:18;;;;;;;21.77;3.45;;;;;;;;;;5053437;28;20123;-79
2021/10/03 01:38:43;;;;;;;21.38;3.55;;;;;;;;;;5052533;28;20481;-79
2021/10/03 01:41:08;;;;;;;40.92;3.85;;;;;;;;;;5053496;28;20040;-79
2021/10/03 01:43:34;;;;;;;63.50;4.38;;;;;;;;;;5053688;28;20468;-79
2021/10/03 01:46:01;;;;;;;37.20;4.05;;;;;;;;;;5053080;28;20389;-79
2021/10/03 01:48:26;;;;;;;45.55;3.92;;;;;;;;;;5053456;28;20021;-79
2021/10/03 01:50:53;;;;;;;45.15;4.40;;;;;;;;;;5053190;28;20112;-79
2021/10/03 01:53:20;;;;;;;13.07;2.85;;;;;;;;;;5053323;28;20095;-79
2021/10/03 01:55:46;;;;;;;32.85;3.42;;;;;;;;;;5053264;28;20096;-79
2021/10/03 01:58:13;;;;;;;26.45;3.00;;;;;;;;;;5053096;28;20120;-79
2021/10/03 02:00:39;;;;;;;56.50;4.05;;;;;;;;;;5052802;28;20020;-79
2021/10/03 02:03:05;;;;;;;30.88;2.55;;;;;;;;;;5053130;28;20120;-79
2021/10/03 02:05:35;;;;;;;108.78;4.82;;;;;;;;;;5052910;28;20028;-79
2021/10/03 02:08:00;;;;;;;51.63;2.72;;;;;;;;;;5053080;28;20021;-79
2021/10/03 02:10:26;;;;;;;56.50;3.53;;;;;;;;;;5053140;28;20381;-81
2021/10/03 02:12:51;;;;;;;21.70;2.92;;;;;;;;;;5053301;28;20029;-79
2021/10/03 02:15:19;;;;;;;51.80;3.67;;;;;;;;;;5053107;28;20075;-79
2021/10/03 02:17:44;;;;;;;30.25;2.47;;;;;;;;;;5052950;28;20075;-79
2021/10/03 02:20:10;;;;;;;5.38;1.48;;;;;;;;;;5053074;28;20060;-79
2021/10/03 02:22:36;;;;;;;4.38;1.60;;;;;;;;;;5053221;28;20482;-79
2021/10/03 02:25:02;;;;;;;50.80;2.60;;;;;;;;;;5053022;28;20128;-79
2021/10/03 02:27:27;;;;;;;10.73;1.80;;;;;;;;;;5052946;28;20068;-79
2021/10/03 02:29:53;;;;;;;13.85;1.73;;;;;;;;;;5051650;28;20028;-79
2021/10/03 02:32:18;;;;;;;44.75;2.78;;;;;;;;;;5052947;28;20025;-78
2021/10/03 02:34:44;;;;;;;65.32;3.20;;;;;;;;;;5052866;28;20049;-78
2021/10/03 02:37:09;;;;;;;59.65;2.97;;;;;;;;;;5052723;28;20029;-79
2021/10/03 02:39:34;;;;;;;26.60;2.58;;;;;;;;;;5052940;28;20029;-79
2021/10/03 02:41:59;;;;;;;16.40;1.98;;;;;;;;;;5052480;28;20147;-79
2021/10/03 02:44:25;;;;;;;11.63;2.70;;;;;;;;;;5052763;28;20020;-78
2021/10/03 02:46:50;;;;;;;7.30;1.95;;;;;;;;;;5053036;28;20029;-79
2021/10/03 02:49:16;;;;;;;3.22;1.33;;;;;;;;;;5052856;28;20044;-79
2021/10/03 02:51:41;;;;;;;4.53;1.80;;;;;;;;;;5056016;28;20024;-79
2021/10/03 02:54:06;;;;;;;6.38;1.73;;;;;;;;;;5056229;28;20032;-79
2021/10/03 02:56:32;;;;;;;10.73;2.15;;;;;;;;;;5056423;28;20112;-79
2021/10/03 02:58:58;;;;;;;43.13;3.28;;;;;;;;;;5056371;28;20021;-79
2021/10/03 03:01:23;;;;;;;54.63;2.45;;;;;;;;;;5056147;28;20096;-79
2021/10/03 03:03:48;;;;;;;17.98;2.35;;;;;;;;;;5056140;28;20037;-80
2021/10/03 03:06:14;;;;;;;64.25;3.28;;;;;;;;;;5056347;28;20029;-80
2021/10/03 03:08:39;;;;;;;137.38;4.68;;;;;;;;;;5056248;28;20049;-80
2021/10/03 03:11:05;;;;;;;97.85;5.03;;;;;;;;;;5056584;28;20029;-80
2021/10/03 03:13:30;;;;;;;20.30;2.15;;;;;;;;;;5056141;28;20025;-79
2021/10/03 03:15:56;;;;;;;23.35;2.03;;;;;;;;;;5056176;28;20021;-79
2021/10/03 03:18:21;;;;;;;49.95;3.33;;;;;;;;;;5055955;28;20393;-80
2021/10/03 03:20:47;;;;;;;94.95;3.50;;;;;;;;;;5056021;28;20021;-79
2021/10/03 03:23:12;;;;;;;73.32;3.08;;;;;;;;;;5056044;28;20433;-79
2021/10/03 03:25:38;;;;;;;37.55;1.95;;;;;;;;;;5055960;28;20418;-79
2021/10/03 03:28:04;;;;;;;25.50;2.20;;;;;;;;;;5055799;28;20021;-79
2021/10/03 03:30:29;;;;;;;28.95;1.75;;;;;;;;;;5055913;28;20021;-79
2021/10/03 03:32:54;;;;;;;16.42;1.70;;;;;;;;;;5055774;28;20060;-79
2021/10/03 03:35:20;;;;;;;43.28;2.17;;;;;;;;;;5055682;28;20132;-79
2021/10/03 03:37:45;;;;;;;3.58;1.15;;;;;;;;;;5055597;28;20040;-79
2021/10/03 03:40:11;;;;;;;9.68;1.42;;;;;;;;;;5055260;28;20041;-79
2021/10/03 03:42:37;;;;;;;3.53;0.90;;;;;;;;;;5055551;28;20036;-79
2021/10/03 03:45:02;;;;;;;35.22;1.75;;;;;;;;;;5055302;28;20056;-79
2021/10/03 03:47:28;;;;;;;13.02;1.63;;;;;;;;;;5055507;28;20029;-79
2021/10/03 03:49:53;;;;;;;14.15;1.63;;;;;;;;;;5055419;28;20064;-78
2021/10/03 03:52:19;;;;;;;4.43;1.58;;;;;;;;;;5055350;28;20013;-79
2021/10/03 03:54:44;;;;;;;4.70;1.60;;;;;;;;;;5055326;28;20033;-79
2021/10/03 03:57:09;;;;;;;3.53;1.50;;;;;;;;;;5055238;28;20046;-78
2021/10/03 03:59:34;;;;;;;5.68;1.40;;;;;;;;;;5055138;28;20031;-80
2021/10/03 04:02:00;;;;;;;5.53;1.50;;;;;;;;;;5054598;28;20060;-79
2021/10/03 04:04:25;;;;;;;7.22;1.27;;;;;;;;;;5054921;28;20028;-79
2021/10/03 04:06:50;;;;;;;5.50;1.98;;;;;;;;;;5055118;28;20033;-79
2021/10/03 04:09:15;;;;;;;7.32;1.45;;;;;;;;;;5055094;28;20466;-79
2021/10/03 04:11:41;;;;;;;3.95;1.40;;;;;;;;;;5055055;28;20071;-79
2021/10/03 04:14:06;;;;;;;32.40;2.03;;;;;;;;;;5053829;28;20035;-79
2021/10/03 04:16:31;;;;;;;118.22;5.35;;;;;;;;;;5054869;28;20481;-79
2021/10/03 04:18:56;;;;;;;57.25;3.03;;;;;;;;;;5054829;28;20029;-79
2021/10/03 04:21:22;;;;;;;77.35;5.13;;;;;;;;;;5054899;28;20029;-79
2021/10/03 04:23:47;;;;;;;20.90;3.03;;;;;;;;;;5054783;28;20059;-78
2021/10/03 04:26:12;;;;;;;62.17;3.92;;;;;;;;;;5054770;28;20481;-78
2021/10/03 04:28:37;;;;;;;61.83;4.40;;;;;;;;;;5054796;28;20025;-79
2021/10/03 04:31:03;;;;;;;7.03;1.60;;;;;;;;;;5054988;28;20104;-78
2021/10/03 04:33:28;;;;;;;28.70;2.00;;;;;;;;;;5054702;28;20077;-78
2021/10/03 04:35:53;;;;;;;5.50;1.35;;;;;;;;;;5054154;28;20048;-79
2021/10/03 04:38:19;;;;;;;4.22;1.20;;;;;;;;;;5053377;28;20052;-79
2021/10/03 04:40:44;;;;;;;3.90;1.38;;;;;;;;;;5054495;28;20017;-79
2021/10/03 04:43:09;;;;;;;7.82;1.20;;;;;;;;;;5054471;28;20571;-78
2021/10/03 04:45:34;;;;;;;3.00;1.08;;;;;;;;;;5054231;28;20495;-79
2021/10/03 04:48:01;;;;;;;2.42;1.35;;;;;;;;;;5054309;28;20027;-79
2021/10/03 04:50:26;;;;;;;3.30;1.05;;;;;;;;;;5054294;28;20021;-78
2021/10/03 04:52:52;;;;;;;4.40;1.30;;;;;;;;;;5054144;28;20392;-79
2021/10/03 04:55:17;;;;;;;3.20;0.82;;;;;;;;;;5053997;28;20016;-79
2021/10/03 04:57:42;;;;;;;3.40;1.25;;;;;;;;;;5054129;28;20464;-79
2021/10/03 05:00:08;;;;;;;3.15;1.20;;;;;;;;;;5054131;28;20025;-80
2021/10/03 05:02:34;;;;;;;3.08;1.42;;;;;;;;;;5053807;28;20416;-79
2021/10/03 05:04:59;;;;;;;14.27;1.83;;;;;;;;;;5054047;28;20025;-79
2021/10/03 05:07:24;;;;;;;79.30;3.97;;;;;;;;;;5054274;28;20041;-79
2021/10/03 05:09:50;;;;;;;58.70;3.75;;;;;;;;;;5049996;28;20424;-79
2021/10/03 05:12:15;;;;;;;39.25;3.30;;;;;;;;;;5054002;28;20021;-79
2021/10/03 05:14:40;;;;;;;10.75;1.88;;;;;;;;;;5053074;28;20033;-80
2021/10/03 05:17:05;;;;;;;10.00;2.40;;;;;;;;;;5053724;28;20033;-79
2021/10/03 05:19:31;;;;;;;13.43;2.67;;;;;;;;;;5053463;28;20025;-79
2021/10/03 05:21:56;;;;;;;5.78;1.60;;;;;;;;;;5053725;28;20040;-79
2021/10/03 05:24:21;;;;;;;5.45;1.75;;;;;;;;;;5052395;28;20087;-79
2021/10/03 05:26:47;;;;;;;2.97;1.52;;;;;;;;;;5053486;28;20029;-79
2021/10/03 05:29:12;;;;;;;8.10;2.92;;;;;;;;;;5053520;28;20421;-79
2021/10/03 05:31:37;;;;;;;8.50;2.85;;;;;;;;;;5053619;28;20099;-79
2021/10/03 05:34:03;;;;;;;24.35;3.05;;;;;;;;;;5053603;28;20021;-79
2021/10/03 05:36:28;;;;;;;7.13;2.58;;;;;;;;;;5053733;28;20462;-79
2021/10/03 05:38:59;;;;;;;6.40;2.22;;;;;;;;;;5053513;28;20095;-79
2021/10/03 05:41:25;;;;;;;139.45;6.82;;;;;;;;;;5053230;28;20512;-79
2021/10/03 05:43:50;;;;;;;136.43;6.40;;;;;;;;;;5053260;28;20040;-79
2021/10/03 05:46:16;;;;;;;29.65;3.05;;;;;;;;;;5053747;28;20027;-79
2021/10/03 05:48:41;;;;;;;79.22;4.13;;;;;;;;;;5053332;28;20024;-79
2021/10/03 05:51:06;;;;;;;3.28;1.52;;;;;;;;;;5053244;28;20037;-79
2021/10/03 05:53:32;;;;;;;21.67;2.00;;;;;;;;;;5053134;28;20017;-79
2021/10/03 05:55:57;;;;;;;8.35;1.92;;;;;;;;;;5053246;28;20049;-79
2021/10/03 05:58:22;;;;;;;9.23;1.35;;;;;;;;;;5051937;28;20072;-79
2021/10/03 06:00:48;;;;;;;10.30;1.55;;;;;;;;;;5053208;28;20032;-79
2021/10/03 06:03:13;;;;;;;2.35;1.02;;;;;;;;;;5053491;28;20346;-79
2021/10/03 06:05:38;;;;;;;3.92;1.10;;;;;;;;;;5053131;28;20039;-79
2021/10/03 06:08:04;;;;;;;5.20;0.80;;;;;;;;;;5052866;28;20426;-79
2021/10/03 06:10:29;;;;;;;2.60;1.05;;;;;;;;;;5053220;28;20017;-79
2021/10/03 06:12:57;;;;;;;46.47;2.22;;;;;;;;;;5053107;28;20039;-79
2021/10/03 06:15:23;;;;;;;9.95;1.30;;;;;;;;;;5053228;28;20021;-79
2021/10/03 06:17:48;;;;;;;7.78;1.00;;;;;;;;;;5053020;28;20087;-79
2021/10/03 06:20:13;;;;;;;3.88;1.05;;;;;;;;;;5052978;28;20033;-79
2021/10/03 06:22:43;;;;;;;2.33;0.75;;;;;;;;;;5053040;28;20022;-79
2021/10/03 06:25:08;;;;;;;1.67;0.80;;;;;;;;;;5053842;28;20021;-79
2021/10/03 06:27:34;;;;;;;2.90;0.70;;;;;;;;;;5057047;28;20055;-79
2021/10/03 06:29:59;;;;;;;2.83;0.90;;;;;;;;;;5056961;28;20014;-79
2021/10/03 06:32:24;;;;;;;1.73;0.80;;;;;;;;;;5056999;28;20433;-78
2021/10/03 06:34:50;;;;;;;7.10;1.05;;;;;;;;;;5056828;28;20460;-79
2021/10/03 06:37:16;;;;;;;4.25;1.00;;;;;;;;;;5055447;28;20054;-78
2021/10/03 06:39:41;;;;;;;3.03;0.75;;;;;;;;;;5056750;28;20104;-79
2021/10/03 06:42:06;;;;;;;10.65;1.25;;;;;;;;;;5056744;28;20040;-79
2021/10/03 06:44:32;;;;;;;4.97;0.98;;;;;;;;;;5056715;28;20022;-79
2021/10/03 06:46:57;;;;;;;4.18;1.10;;;;;;;;;;5055142;28;20115;-79
2021/10/03 06:49:22;;;;;;;10.00;1.23;;;;;;;;;;5056591;28;20033;-79
2021/10/03 06:51:47;;;;;;;3.10;0.90;;;;;;;;;;5056523;28;20031;-79
2021/10/03 06:54:13;;;;;;;3.85;1.25;;;;;;;;;;5056693;28;20021;-79
2021/10/03 06:56:38;;;;;;;1.63;0.80;;;;;;;;;;5056329;28;20085;-79
2021/10/03 06:59:03;;;;;;;5.65;1.50;;;;;;;;;;5056641;28;20017;-79
2021/10/03 07:01:29;;;;;;;5.18;0.98;;;;;;;;;;5056166;28;20021;-79
2021/10/03 07:03:54;;;;;;;4.57;0.90;;;;;;;;;;5056052;28;20037;-79
2021/10/03 07:06:20;;;;;;;2.95;1.50;;;;;;;;;;5056338;28;20071;-78
2021/10/03 07:08:45;;;;;;;9.07;1.20;;;;;;;;;;5056182;28;20525;-79
2021/10/03 07:11:10;;;;;;;8.40;1.25;;;;;;;;;;5056343;28;20037;-80
2021/10/03 07:13:36;;;;;;;4.78;1.20;;;;;;;;;;5056165;28;20036;-79
2021/10/03 07:16:01;;;;;;;11.98;3.13;;;;;;;;;;5054894;28;20033;-79
2021/10/03 07:18:27;;;;;;;11.60;3.58;;;;;;;;;;5055998;28;20041;-79
2021/10/03 07:20:52;;;;;;;13.40;4.15;;;;;;;;;;5055960;28;20056;-79
2021/10/03 07:23:17;;;;;;;10.15;2.40;;;;;;;;;;5056103;28;20457;-79
2021/10/03 07:25:42;;;;;;;8.02;1.30;;;;;;;;;;5055847;28;20040;-80
2021/10/03 07:28:08;;;;;;;7.32;1.65;;;;;;;;;;5055931;28;20175;-79
2021/10/03 07:30:33;;;;;;;5.45;0.98;;;;;;;;;;5055845;28;20021;-79
2021/10/03 07:32:58;;;;;;;5.47;0.85;;;;;;;;;;5055706;28;20561;-80
2021/10/03 07:35:24;;;;;;;3.20;0.88;;;;;;;;;;5055944;28;20508;-79
2021/10/03 07:37:49;;;;;;;4.65;0.93;;;;;;;;;;5054342;28;20033;-79
2021/10/03 07:40:15;;;;;;;2.90;0.82;;;;;;;;;;5055959;28;20071;-79
2021/10/03 07:42:42;;;;;;;4.15;1.05;;;;;;;;;;5055598;28;20017;-79
2021/10/03 07:45:08;;;;;;;2.25;0.90;;;;;;;;;;5055596;28;20442;-79
2021/10/03 07:47:33;;;;;;;6.93;1.10;;;;;;;;;;5055237;28;20405;-79
2021/10/03 07:49:59;;;;;;;4.25;1.42;;;;;;;;;;5055387;28;20017;-79
2021/10/03 07:52:24;;;;;;;9.25;1.17;;;;;;;;;;5055525;28;20040;-79
2021/10/03 07:54:49;;;;;;;3.97;1.20;;;;;;;;;;5055346;28;20044;-79
2021/10/03 07:57:14;;;;;;;4.47;1.10;;;;;;;;;;5056539;28;20416;-80
2021/10/03 07:59:40;;;;;;;6.95;1.23;;;;;;;;;;5073365;28;20016;-80
2021/10/03 08:02:05;;;;;;;9.05;1.42;;;;;;;;;;5070580;28;20033;-79
2021/10/03 08:04:31;;;;;;;13.32;1.35;;;;;;;;;;5055390;28;20032;-79
2021/10/03 08:06:56;;;;;;;11.10;1.25;;;;;;;;;;5066560;28;20461;-79
2021/10/03 08:09:21;;;;;;;9.55;1.45;;;;;;;;;;5059651;28;20037;-79
2021/10/03 08:11:47;;;;;;;11.70;1.88;;;;;;;;;;5054892;28;20021;-79
2021/10/03 08:14:12;;;;;;;10.57;2.35;;;;;;;;;;5060641;28;20020;-80
2021/10/03 08:16:37;;;;;;;13.70;1.20;;;;;;;;;;5065636;28;20107;-80
2021/10/03 08:19:03;;;;;;;11.27;1.50;;;;;;;;;;5066777;28;20035;-79
2021/10/03 08:21:29;;;;;;;5.47;1.13;;;;;;;;;;5069958;28;20029;-79
2021/10/03 08:23:54;;;;;;;11.20;1.33;;;;;;;;;;5038838;28;20399;-79
2021/10/03 08:26:19;;;;;;;10.18;1.23;;;;;;;;;;5035181;28;20025;-80
2021/10/03 08:28:45;;;;;;;7.03;1.20;;;;;;;;;;5034817;28;20442;-80
2021/10/03 08:31:10;;;;;;;10.15;1.17;;;;;;;;;;5039733;28;20056;-80
2021/10/03 08:33:35;;;;;;;7.85;2.15;;;;;;;;;;5054339;28;20096;-81
2021/10/03 08:36:01;;;;;;;4.95;1.30;;;;;;;;;;5054770;28;20053;-81
2021/10/03 08:38:26;;;;;;;13.60;1.38;;;;;;;;;;5054518;28;20080;-81
2021/10/03 08:40:51;;;;;;;7.68;1.33;;;;;;;;;;5054410;28;20028;-81
2021/10/03 08:43:17;;;;;;;8.63;1.60;;;;;;;;;;5054624;28;20016;-81
2021/10/03 08:45:43;;;;;;;4.15;1.55;;;;;;;;;;5054402;28;20063;-81
2021/10/03 08:48:09;;;;;;;9.07;1.40;;;;;;;;;;5053666;28;20025;-81
2021/10/03 08:50:35;;;;;;;8.02;1.63;;;;;;;;;;5054369;28;20025;-83
2021/10/03 08:53:00;;;;;;;8.27;1.42;;;;;;;;;;5052942;28;20037;-81
2021/10/03 08:55:25;;;;;;;5.82;1.25;;;;;;;;;;5054259;28;20065;-82
2021/10/03 08:57:51;;;;;;;6.15;0.98;;;;;;;;;;5053973;28;20059;-82
2021/10/03 09:00:17;;;;;;;7.75;1.30;;;;;;;;;;5054299;28;20036;-82
2021/10/03 09:02:56;;;;;;;5.28;1.13;;;;;;;;;;5054126;28;20032;-83
2021/10/03 09:05:23;;;;;;;7.68;1.30;;;;;;;;;;5054091;28;20036;-82
2021/10/03 09:08:08;;;;;;;3.50;0.77;;;;;;;;;;5053937;28;20086;-82
2021/10/03 09:10:46;;;;;;;5.93;0.85;;;;;;;;;;5053286;28;20051;-82
2021/10/03 09:13:11;;;;;;;12.50;1.15;;;;;;;;;;5054234;28;20029;-81
2021/10/03 09:15:37;;;;;;;9.10;2.35;;;;;;;;;;5053820;28;20040;-81
2021/10/03 09:18:04;;;;;;;5.32;0.75;;;;;;;;;;5053815;28;20052;-81
2021/10/03 09:20:30;;;;;;;9.02;1.00;;;;;;;;;;5053774;28;20023;-81
2021/10/03 09:23:07;;;;;;;10.25;1.23;;;;;;;;;;5053724;28;20071;-81
2021/10/03 09:25:33;;;;;;;5.60;0.90;;;;;;;;;;5053811;28;20033;-80
2021/10/03 09:27:58;;;;;;;3.15;0.70;;;;;;;;;;5053590;28;20025;-81
2021/10/03 09:30:24;;;;;;;9.85;1.20;;;;;;;;;;5053603;28;20385;-81
2021/10/03 09:32:53;;;;;;;13.48;2.10;;;;;;;;;;5053790;28;20017;-81
2021/10/03 09:35:19;;;;;;;9.07;1.85;;;;;;;;;;5053184;28;20099;-81
2021/10/03 09:37:46;;;;;;;6.65;1.10;;;;;;;;;;5053554;28;20041;-80
2021/10/03 09:40:13;;;;;;;2.90;0.70;;;;;;;;;;5053467;28;20025;-80
2021/10/03 09:42:39;;;;;;;6.25;1.00;;;;;;;;;;5053511;28;20025;-81
2021/10/03 09:45:15;;;;;;;6.43;1.20;;;;;;;;;;5053371;28;20040;-80
2021/10/03 09:47:40;;;;;;;;;;;;;;;;;;5053791;28;20032;-81
2021/10/03 09:50:07;;;;;;;11.55;0.95;;;;;;;;;;5053380;28;19905;-80
2021/10/03 09:52:32;;;;;;;5.93;0.80;;;;;;;;;;5053450;28;20037;-80
2021/10/03 09:54:59;;;;;;;3.50;0.65;;;;;;;;;;5053484;28;20025;-81
2021/10/03 09:57:25;;;;;;;4.95;0.80;;;;;;;;;;5053220;28;20025;-80
2021/10/03 09:59:50;;;;;;;2.30;0.52;;;;;;;;;;5052681;28;20124;-80
2021/10/03 10:02:18;;;;;;;6.32;0.90;;;;;;;;;;5053186;28;20478;-81
2021/10/03 10:04:43;;;;;;;9.48;0.70;;;;;;;;;;5053125;28;20032;-80
2021/10/03 10:07:09;;;;;;;2.00;0.68;;;;;;;;;;5053244;28;20037;-80
2021/10/03 10:09:34;;;;;;;4.78;0.70;;;;;;;;;;5053136;28;20032;-80
2021/10/03 10:12:18;;;;;;;6.78;1.02;;;;;;;;;;5053066;28;20063;-80
2021/10/03 10:14:45;;;;;;;4.18;0.68;;;;;;;;;;5053135;28;20449;-80
2021/10/03 10:17:32;;;;;;;5.85;0.80;;;;;;;;;;5053084;28;20065;-81
2021/10/03 10:20:15;;;;;;;6.60;0.90;;;;;;;;;;5053135;28;20056;-80
2021/10/03 10:22:52;;;;;;;10.43;1.10;;;;;;;;;;5053087;28;20017;-81
2021/10/03 10:25:17;;;;;;;10.73;1.00;;;;;;;;;;5052980;28;20033;-80
2021/10/03 10:27:42;;;;;;;7.50;1.10;;;;;;;;;;5053060;28;20055;-80
2021/10/03 10:30:15;;;;;;;9.32;0.90;;;;;;;;;;5052990;28;20385;-80
2021/10/03 10:32:56;;;;;;;7.22;0.88;;;;;;;;;;5051599;28;20033;-80
2021/10/03 10:35:28;;;;;;;2.97;0.77;;;;;;;;;;5052514;28;20045;-81
2021/10/03 10:37:54;;;;;;;6.20;0.90;;;;;;;;;;5052827;28;20037;-80
2021/10/03 10:40:23;;;;;;;7.97;1.10;;;;;;;;;;5052934;28;20052;-80
2021/10/03 10:42:49;;;;;;;3.83;0.68;;;;;;;;;;5052918;28;20473;-80
2021/10/03 10:45:26;;;;;;;5.72;0.60;;;;;;;;;;5052925;28;20037;-80
2021/10/03 10:48:17;;;;;;;11.63;1.08;;;;;;;;;;5052744;28;20032;-80
2021/10/03 10:50:43;;;;;;;8.70;0.95;;;;;;;;;;5051219;28;20045;-79
2021/10/03 10:53:14;;;;;;;5.30;0.98;;;;;;;;;;5052778;28;20094;-80
2021/10/03 10:55:39;;;;;;;5.55;0.70;;;;;;;;;;5052651;28;20043;-80
2021/10/03 10:58:06;;;;;;;7.95;1.40;;;;;;;;;;5052668;28;20124;-79
2021/10/03 11:00:32;;;;;;;4.53;1.20;;;;;;;;;;5052374;28;20480;-80
2021/10/03 11:02:58;;;;;;;13.77;1.00;;;;;;;;;;5052324;28;20068;-80
2021/10/03 11:05:37;;;;;;;10.95;1.10;;;;;;;;;;5052636;28;20108;-80
2021/10/03 11:08:05;;;;;;;14.68;1.13;;;;;;;;;;5052704;28;20021;-81
2021/10/03 11:10:31;;;;;;;5.80;1.02;;;;;;;;;;5052663;28;20112;-80
2021/10/03 11:12:56;;;;;;;6.32;1.10;;;;;;;;;;5054545;28;20057;-81
2021/10/03 11:15:22;;;;;;;9.25;1.23;;;;;;;;;;5056230;28;20021;-80
2021/10/03 11:17:48;;;;;;;9.43;2.00;;;;;;;;;;5055678;28;20521;-80
2021/10/03 11:20:13;;;;;;;10.13;2.20;;;;;;;;;;5056080;28;20100;-80
2021/10/03 11:22:38;;;;;;;8.15;1.88;;;;;;;;;;5055898;28;20021;-80
2021/10/03 11:25:04;;;;;;;6.13;1.35;;;;;;;;;;5056066;28;20039;-80
2021/10/03 11:27:32;;;;;;;4.53;1.23;;;;;;;;;;5055931;28;20025;-80
2021/10/03 11:29:58;;;;;;;10.55;1.17;;;;;;;;;;5055920;28;20028;-80
2021/10/03 11:32:31;;;;;;;10.80;1.63;;;;;;;;;;5055897;28;20064;-80
2021/10/03 11:35:02;;;;;;;4.35;1.17;;;;;;;;;;5055520;28;20382;-80
2021/10/03 11:37:30;;;;;;;5.88;0.95;;;;;;;;;;5055753;28;20052;-80
2021/10/03 11:40:02;;;;;;;5.63;1.38;;;;;;;;;;5055700;28;20029;-80
2021/10/03 11:42:31;;;;;;;9.60;1.30;;;;;;;;;;5055746;28;20369;-79
2021/10/03 11:44:57;;;;;;;3.63;1.23;;;;;;;;;;5055370;28;20542;-80
2021/10/03 11:47:22;;;;;;;11.48;1.70;;;;;;;;;;5055636;28;20021;-80
2021/10/03 11:49:48;;;;;;;5.68;0.90;;;;;;;;;;5055489;28;20051;-80
2021/10/03 11:52:26;;;;;;;7.20;1.40;;;;;;;;;;5055280;28;20029;-80
2021/10/03 11:54:54;;;;;;;5.85;1.27;;;;;;;;;;5055152;28;20100;-80
2021/10/03 11:57:20;;;;;;;7.18;1.75;;;;;;;;;;5055428;28;20041;-80
2021/10/03 11:59:47;;;;;;;12.45;5.97;;;;;;;;;;5055384;28;20047;-80
2021/10/03 12:02:13;;;;;;;7.57;4.78;;;;;;;;;;5055364;28;20029;-79
2021/10/03 12:04:51;;;;;;;10.15;3.58;;;;;;;;;;5055349;28;20035;-80
2021/10/03 12:07:17;;;;;;;8.32;1.15;;;;;;;;;;5055378;28;20029;-80
2021/10/03 12:09:59;;;;;;;8.50;1.30;;;;;;;;;;5055195;28;20552;-80
2021/10/03 12:12:43;;;;;;;8.25;1.30;;;;;;;;;;5055331;28;20036;-80
2021/10/03 12:15:08;;;;;;;9.23;1.50;;;;;;;;;;5053811;28;20033;-80
2021/10/03 12:17:47;;;;;;;12.80;1.23;;;;;;;;;;5054949;28;20106;-80
2021/10/03 12:20:12;;;;;;;5.03;1.48;;;;;;;;;;5054901;28;20033;-80
2021/10/03 12:22:54;;;;;;;10.52;1.00;;;;;;;;;;5054515;28;20465;-81
2021/10/03 12:25:19;;;;;;;8.00;0.85;;;;;;;;;;5054828;28;20103;-81
2021/10/03 12:27:58;;;;;;;3.83;0.50;;;;;;;;;;5054625;28;20049;-80
2021/10/03 12:30:23;;;;;;;2.72;0.55;;;;;;;;;;5054680;28;20033;-80
2021/10/03 12:33:01;;;;;;;6.72;1.00;;;;;;;;;;5054771;28;20481;-80
2021/10/03 12:35:26;;;;;;;2.65;0.70;;;;;;;;;;5054486;28;20053;-80
2021/10/03 12:37:51;;;;;;;6.93;0.75;;;;;;;;;;5054570;28;20063;-80
2021/10/03 12:40:21;;;;;;;1.55;0.60;;;;;;;;;;5054277;28;20091;-80
2021/10/03 12:42:46;;;;;;;14.52;4.25;;;;;;;;;;5054252;28;20461;-80
2021/10/03 12:45:12;;;;;;;9.13;1.88;;;;;;;;;;5054552;28;20025;-80
2021/10/03 12:47:40;;;;;;;10.93;3.03;;;;;;;;;;5054382;28;20074;-80
2021/10/03 12:50:05;;;;;;;4.25;1.40;;;;;;;;;;5054474;28;20017;-80
2021/10/03 12:52:31;;;;;;;10.82;1.02;;;;;;;;;;5054390;28;20374;-80
2021/10/03 12:54:56;;;;;;;8.07;1.55;;;;;;;;;;5054289;28;20465;-80
2021/10/03 12:57:22;;;;;;;6.57;0.95;;;;;;;;;;5054203;28;20029;-80
2021/10/03 12:59:47;;;;;;;7.90;1.55;;;;;;;;;;5054247;28;20385;-80
2021/10/03 13:02:12;;;;;;;6.95;1.65;;;;;;;;;;5054533;28;20369;-80
2021/10/03 13:04:38;;;;;;;9.23;1.70;;;;;;;;;;5054156;28;20469;-80
2021/10/03 13:07:03;;;;;;;8.20;1.27;;;;;;;;;;5054145;28;20090;-79
2021/10/03 13:09:28;;;;;;;6.97;1.63;;;;;;;;;;5053814;28;20474;-80
2021/10/03 13:11:54;;;;;;;3.88;0.95;;;;;;;;;;5051628;28;20052;-83
2021/10/03 13:14:19;;;;;;;4.93;1.67;;;;;;;;;;5050498;28;20106;-83
2021/10/03 13:16:44;;;;;;;9.45;1.52;;;;;;;;;;5050959;28;20425;-80
2021/10/03 13:19:10;;;;;;;7.88;1.92;;;;;;;;;;5050695;28;20083;-80
2021/10/03 13:21:35;;;;;;;7.57;2.70;;;;;;;;;;5050418;28;20543;-81
2021/10/03 13:24:01;;;;;;;9.25;0.98;;;;;;;;;;5050334;28;20033;-81
2021/10/03 13:26:26;;;;;;;7.88;2.15;;;;;;;;;;5050776;28;20078;-81
2021/10/03 13:28:51;;;;;;;7.15;0.95;;;;;;;;;;5050204;28;20067;-81
2021/10/03 13:31:17;;;;;;;9.98;1.27;;;;;;;;;;5050673;28;20033;-80
2021/10/03 13:33:42;;;;;;;9.68;1.27;;;;;;;;;;5049979;28;20083;-81
2021/10/03 13:36:07;;;;;;;12.00;1.15;;;;;;;;;;5049325;28;20557;-80
2021/10/03 13:38:33;;;;;;;9.55;1.98;;;;;;;;;;5050353;28;20154;-80
2021/10/03 13:41:05;;;;;;;12.52;1.50;;;;;;;;;;5050790;28;20488;-81
2021/10/03 13:43:31;;;;;;;8.98;1.83;;;;;;;;;;5050722;28;20163;-80
2021/10/03 13:45:57;;;;;;;8.05;1.63;;;;;;;;;;5050018;28;20033;-81
2021/10/03 13:48:22;;;;;;;7.85;1.27;;;;;;;;;;5050329;28;20027;-81
2021/10/03 13:50:47;;;;;;;15.00;2.00;;;;;;;;;;5050401;28;20025;-81
2021/10/03 13:53:13;;;;;;;7.97;1.42;;;;;;;;;;5048893;28;20389;-81
2021/10/03 13:55:39;;;;;;;6.22;1.35;;;;;;;;;;5050829;28;20500;-80
2021/10/03 13:58:04;;;;;;;8.20;1.52;;;;;;;;;;5050583;28;20041;-81
2021/10/03 14:00:30;;;;;;;6.65;1.00;;;;;;;;;;5050185;28;20037;-81
2021/10/03 14:02:55;;;;;;;21.77;2.28;;;;;;;;;;5050309;28;20473;-81
2021/10/03 14:05:20;;;;;;;8.85;1.40;;;;;;;;;;5049841;28;20104;-82
2021/10/03 14:07:46;;;;;;;6.88;1.40;;;;;;;;;;5049901;28;20037;-81
2021/10/03 14:10:12;;;;;;;7.50;1.58;;;;;;;;;;5050329;28;20082;-81
2021/10/03 14:12:38;;;;;;;5.63;1.05;;;;;;;;;;5049950;28;20025;-81
2021/10/03 14:15:04;;;;;;;7.07;1.02;;;;;;;;;;5049672;28;20033;-81
2021/10/03 14:17:29;;;;;;;10.23;1.50;;;;;;;;;;5049785;28;20040;-80
2021/10/03 14:19:54;;;;;;;6.90;1.33;;;;;;;;;;5049974;28;20136;-82
2021/10/03 14:22:20;;;;;;;12.85;1.35;;;;;;;;;;5050237;28;20501;-81
2021/10/03 14:24:45;;;;;;;5.80;0.95;;;;;;;;;;5050169;28;20058;-81
2021/10/03 14:27:10;;;;;;;7.60;0.80;;;;;;;;;;5050111;28;20476;-81
2021/10/03 14:29:36;;;;;;;9.25;1.55;;;;;;;;;;5049889;28;20528;-81
2021/10/03 14:32:02;;;;;;;11.63;1.67;;;;;;;;;;5048563;28;20382;-81
2021/10/03 14:34:27;;;;;;;7.68;1.13;;;;;;;;;;5049827;28;20477;-81